Dolores, CO (81323)

3:12 AM MDT on August 31, 2015 (GMT -0600)
Merritt Subdivision | | Change Station
CLOSE
Current Station
Personal Weather Station
Location: Dolores, CO
Elevation: 7028 ft
Nearby Weather Stations

Elev 7028 ft 37.47 °N, 108.49 °W | Updated 2 minutes ago

Mostly Cloudy
Mostly Cloudy
52.9 °F
Feels Like 52.9 °F
N
0.0
Wind Variable Wind from ENE
Gusts 0.0 mph

Today
High -- | Low -- °F
--% Chance of Precip.
Yesterday
High -- | Low -- °F
Precip. -- in
6:43 AM 7:44 PM
Waning Gibbous, 96% visible
Pressure 29.94 in
Visibility 10.0 miles
Clouds Clear
Dew Point 48 °F
Humidity 84%
Rainfall 0.00 in
Snow Depth Not available.
UV 0 out of 12
Pollen 8.50 out of 12
Air Quality Not available.
Flu Activity Not available.
METAR KCEZ 310853Z AUTO 00000KT 10SM CLR 15/11 A3019 RMK AO2 SLP138 T01500111 50007
Pressure 29.94 in
Visibility 10.0 miles
Clouds Clear
Dew Point 48 °F
Humidity 84%
Rainfall 0.00 in
Snow Depth Not available.
UV 0 out of 12
Pollen 8.50 out of 12
Air Quality Not available.
Flu Activity Not available.
METAR KCEZ 310853Z AUTO 00000KT 10SM CLR 15/11 A3019 RMK AO2 SLP138 T01500111 50007

10-Day Weather Forecast

×

Almanac

Astronomy

Aug. 31, 2015 Rise Set
Actual Time
Civil Twilight
Nautical Twilight
Astronomical Twilight
Moon
Length of Visible Light
Length of Day
Tomorrow will be .
, % of the Moon is Illuminated

Today's Extremes

State Highs State Lows

Community

WunderPhotos

Upload Photos

1,851,227 photos uploaded!

WunderBlogs® & News

Nearby

Air Quality

  Air Quality AQ Index Pollutant
Not available.

Snow Depth

Station Depth Elevation

Earthquake Activity

City Distance Mag. Time & Date
Minimum magnitude displayed is 2.5.

Coastal Water Temperatures

Place Temperature

Stations

Nearby Weather Stations

Station Location Temp. Windchill Dew Point Humidity Wind Precip. Elev Updated Type